BER43VS ESGG-EDDB
Flight info
| Callsign | BER43VS |
|---|---|
| Flight time | 0h 55m |
| Altitude | 33000 |
| Route | TOPLA L996 ATRIB DCT SALLO DCT USEDU Z14 BEKBA T280 KETAP KETAP1R |
| Aircraft | A320/M-SDE3FGHIRWY/LB1 |
Departure
| Time | 2026-05-07 18:09 |
|---|---|
| Airport | Göteborg Landvetter Airport (ESGG) |
Arrival
| Time | 2026-05-07 19:04 |
|---|---|
| Airport | Berlin Brandenburg Airport (EDDB) |
| Time | Latitude | Longitude | Altitude | Speed | Heading |
|---|---|---|---|---|---|
| 2026-05-07 17:37 | 57.66848 | 12.29376 | 516 ft | 0 kts | 116° |
| 2026-05-07 18:00 | 57.66854 | 12.29354 | 516 ft | 4 kts | 116° |
| 2026-05-07 18:00 | 57.66865 | 12.29310 | 516 ft | 3 kts | 116° |
| 2026-05-07 18:01 | 57.66872 | 12.29275 | 516 ft | 4 kts | 75° |
| 2026-05-07 18:01 | 57.66858 | 12.29242 | 516 ft | 3 kts | 26° |
| 2026-05-07 18:01 | 57.66859 | 12.29243 | 516 ft | 0 kts | 26° |
| 2026-05-07 18:04 | 57.66878 | 12.29261 | 516 ft | 6 kts | 26° |
| 2026-05-07 18:04 | 57.66915 | 12.29294 | 516 ft | 6 kts | 26° |
| 2026-05-07 18:05 | 57.66970 | 12.29327 | 516 ft | 8 kts | 344° |
| 2026-05-07 18:05 | 57.66999 | 12.29243 | 516 ft | 9 kts | 296° |
| 2026-05-07 18:05 | 57.67051 | 12.29194 | 516 ft | 10 kts | 15° |
| 2026-05-07 18:05 | 57.67141 | 12.29277 | 516 ft | 17 kts | 26° |
| 2026-05-07 18:06 | 57.67251 | 12.29372 | 516 ft | 18 kts | 25° |
| 2026-05-07 18:06 | 57.67363 | 12.29476 | 516 ft | 12 kts | 27° |
| 2026-05-07 18:06 | 57.67422 | 12.29433 | 515 ft | 11 kts | 298° |
| 2026-05-07 18:06 | 57.67457 | 12.29292 | 515 ft | 12 kts | 287° |
| 2026-05-07 18:07 | 57.67460 | 12.29263 | 515 ft | 0 kts | 276° |
| 2026-05-07 18:07 | 57.67460 | 12.29262 | 515 ft | 0 kts | 276° |
| 2026-05-07 18:07 | 57.67459 | 12.29172 | 514 ft | 13 kts | 268° |
| 2026-05-07 18:08 | 57.67443 | 12.29037 | 514 ft | 9 kts | 220° |
| 2026-05-07 18:08 | 57.67337 | 12.28939 | 514 ft | 41 kts | 206° |
| 2026-05-07 18:08 | 57.66863 | 12.28507 | 513 ft | 108 kts | 206° |
| 2026-05-07 18:08 | 57.66018 | 12.27739 | 508 ft | 160 kts | 206° |
| 2026-05-07 18:09 | 57.64982 | 12.26816 | 1045 ft | 163 kts | 209° |
| 2026-05-07 18:09 | 57.63967 | 12.25909 | 1799 ft | 161 kts | 208° |
| 2026-05-07 18:09 | 57.62946 | 12.24998 | 2344 ft | 169 kts | 207° |
| 2026-05-07 18:09 | 57.61798 | 12.24020 | 2621 ft | 192 kts | 204° |
| 2026-05-07 18:10 | 57.60490 | 12.23087 | 2997 ft | 212 kts | 194° |
| 2026-05-07 18:10 | 57.58966 | 12.22697 | 3309 ft | 237 kts | 183° |
| 2026-05-07 18:10 | 57.57242 | 12.22543 | 3800 ft | 256 kts | 182° |
| 2026-05-07 18:10 | 57.55438 | 12.22483 | 4645 ft | 261 kts | 173° |
| 2026-05-07 18:11 | 57.53641 | 12.23064 | 5549 ft | 263 kts | 169° |
| 2026-05-07 18:11 | 57.52418 | 12.23453 | 6169 ft | 265 kts | 170° |
| 2026-05-07 18:11 | 57.49997 | 12.24148 | 7335 ft | 267 kts | 172° |
| 2026-05-07 18:11 | 57.48138 | 12.24648 | 8124 ft | 272 kts | 173° |
| 2026-05-07 18:12 | 57.46249 | 12.25177 | 8889 ft | 278 kts | 169° |
| 2026-05-07 18:12 | 57.44339 | 12.25970 | 9658 ft | 284 kts | 167° |
| 2026-05-07 18:12 | 57.42405 | 12.26870 | 10378 ft | 290 kts | 167° |
| 2026-05-07 18:12 | 57.40376 | 12.27851 | 10656 ft | 313 kts | 167° |
| 2026-05-07 18:13 | 57.38189 | 12.28918 | 10846 ft | 336 kts | 166° |
| 2026-05-07 18:13 | 57.35863 | 12.30050 | 11166 ft | 353 kts | 167° |
| 2026-05-07 18:13 | 57.33499 | 12.31196 | 11778 ft | 359 kts | 167° |
| 2026-05-07 18:13 | 57.31070 | 12.32364 | 12459 ft | 363 kts | 167° |
| 2026-05-07 18:14 | 57.28616 | 12.33535 | 13149 ft | 367 kts | 167° |
| 2026-05-07 18:14 | 57.26128 | 12.34714 | 13834 ft | 371 kts | 167° |
| 2026-05-07 18:14 | 57.23617 | 12.35901 | 14445 ft | 375 kts | 167° |
| 2026-05-07 18:14 | 57.21080 | 12.37100 | 15041 ft | 378 kts | 167° |
| 2026-05-07 18:15 | 57.18535 | 12.38301 | 15645 ft | 381 kts | 167° |
| 2026-05-07 18:15 | 57.15938 | 12.39521 | 16241 ft | 385 kts | 167° |
| 2026-05-07 18:15 | 57.13333 | 12.40742 | 16837 ft | 388 kts | 167° |
| 2026-05-07 18:15 | 57.10704 | 12.41970 | 17421 ft | 391 kts | 167° |
| 2026-05-07 18:16 | 57.08088 | 12.43187 | 18000 ft | 395 kts | 167° |
| 2026-05-07 18:16 | 57.05412 | 12.44431 | 18563 ft | 398 kts | 167° |
| 2026-05-07 18:16 | 57.02713 | 12.45680 | 19070 ft | 402 kts | 167° |
| 2026-05-07 18:16 | 56.99992 | 12.46940 | 19585 ft | 405 kts | 167° |
| 2026-05-07 18:17 | 56.97253 | 12.48205 | 20102 ft | 408 kts | 167° |
| 2026-05-07 18:17 | 56.94491 | 12.49478 | 20586 ft | 411 kts | 167° |
| 2026-05-07 18:17 | 56.91703 | 12.50763 | 21061 ft | 414 kts | 167° |
| 2026-05-07 18:17 | 56.88898 | 12.52053 | 21522 ft | 418 kts | 167° |
| 2026-05-07 18:18 | 56.86068 | 12.53348 | 21974 ft | 421 kts | 167° |
| 2026-05-07 18:18 | 56.83218 | 12.54651 | 22418 ft | 424 kts | 167° |
| 2026-05-07 18:18 | 56.80345 | 12.55966 | 22835 ft | 427 kts | 167° |
| 2026-05-07 18:18 | 56.77494 | 12.57268 | 23260 ft | 430 kts | 167° |
| 2026-05-07 18:19 | 56.74578 | 12.58598 | 23666 ft | 433 kts | 167° |
| 2026-05-07 18:19 | 56.71646 | 12.59935 | 24020 ft | 435 kts | 167° |
| 2026-05-07 18:19 | 56.68702 | 12.61280 | 24380 ft | 437 kts | 167° |
| 2026-05-07 18:19 | 56.65749 | 12.62624 | 24728 ft | 439 kts | 167° |
| 2026-05-07 18:20 | 56.62780 | 12.63970 | 25070 ft | 441 kts | 167° |
| 2026-05-07 18:20 | 56.59797 | 12.65319 | 25406 ft | 443 kts | 167° |
| 2026-05-07 18:20 | 56.56803 | 12.66669 | 25728 ft | 444 kts | 167° |
| 2026-05-07 18:20 | 56.53796 | 12.68024 | 26050 ft | 446 kts | 167° |
| 2026-05-07 18:21 | 56.50772 | 12.69388 | 26365 ft | 448 kts | 167° |
| 2026-05-07 18:21 | 56.47741 | 12.70752 | 26686 ft | 450 kts | 167° |
| 2026-05-07 18:21 | 56.44689 | 12.72119 | 26989 ft | 452 kts | 167° |
| 2026-05-07 18:21 | 56.41675 | 12.73472 | 27295 ft | 454 kts | 166° |
| 2026-05-07 18:22 | 56.38609 | 12.74855 | 27582 ft | 455 kts | 166° |
| 2026-05-07 18:22 | 56.37569 | 12.75325 | 27674 ft | 456 kts | 166° |
| 2026-05-07 18:22 | 56.32424 | 12.77645 | 28058 ft | 461 kts | 166° |
| 2026-05-07 18:22 | 56.29312 | 12.79042 | 28334 ft | 462 kts | 166° |
| 2026-05-07 18:23 | 56.26182 | 12.80443 | 28565 ft | 464 kts | 166° |
| 2026-05-07 18:23 | 56.23040 | 12.81849 | 28776 ft | 467 kts | 166° |
| 2026-05-07 18:23 | 56.19880 | 12.83261 | 29022 ft | 468 kts | 166° |
| 2026-05-07 18:23 | 56.16721 | 12.84672 | 29307 ft | 468 kts | 166° |
| 2026-05-07 18:24 | 56.13607 | 12.86060 | 29652 ft | 466 kts | 166° |
| 2026-05-07 18:24 | 56.10465 | 12.87460 | 30023 ft | 465 kts | 166° |
| 2026-05-07 18:24 | 56.07331 | 12.88854 | 30366 ft | 463 kts | 166° |
| 2026-05-07 18:24 | 56.04208 | 12.90238 | 30637 ft | 463 kts | 166° |
| 2026-05-07 18:25 | 56.01087 | 12.91622 | 30898 ft | 463 kts | 166° |
| 2026-05-07 18:25 | 55.97964 | 12.93007 | 31161 ft | 462 kts | 166° |
| 2026-05-07 18:25 | 55.94844 | 12.94390 | 31434 ft | 462 kts | 166° |
| 2026-05-07 18:25 | 55.91725 | 12.95769 | 31706 ft | 461 kts | 166° |
| 2026-05-07 18:26 | 55.88613 | 12.97139 | 31981 ft | 461 kts | 166° |
| 2026-05-07 18:26 | 55.86549 | 12.98042 | 32180 ft | 460 kts | 166° |
| 2026-05-07 18:26 | 55.83445 | 12.99396 | 32478 ft | 459 kts | 165° |
| 2026-05-07 18:26 | 55.79339 | 13.01185 | 32849 ft | 459 kts | 165° |
| 2026-05-07 18:27 | 55.76242 | 13.02534 | 33116 ft | 458 kts | 165° |
| 2026-05-07 18:27 | 55.73150 | 13.03881 | 33389 ft | 458 kts | 165° |
| 2026-05-07 18:27 | 55.70056 | 13.05228 | 33668 ft | 457 kts | 165° |
| 2026-05-07 18:27 | 55.67969 | 13.06135 | 33854 ft | 457 kts | 165° |
| 2026-05-07 18:28 | 55.64924 | 13.07455 | 34125 ft | 457 kts | 165° |
| 2026-05-07 18:28 | 55.61840 | 13.08788 | 34351 ft | 456 kts | 165° |
| 2026-05-07 18:28 | 55.58759 | 13.10116 | 34588 ft | 456 kts | 165° |
| 2026-05-07 18:28 | 55.55680 | 13.11442 | 34818 ft | 455 kts | 165° |
| 2026-05-07 18:29 | 55.52605 | 13.12770 | 35030 ft | 455 kts | 165° |
| 2026-05-07 18:29 | 55.46445 | 13.15422 | 35140 ft | 457 kts | 165° |
| 2026-05-07 18:30 | 55.40267 | 13.18079 | 35138 ft | 457 kts | 165° |
| 2026-05-07 18:30 | 55.34090 | 13.20718 | 35142 ft | 457 kts | 165° |
| 2026-05-07 18:31 | 55.27949 | 13.23317 | 35145 ft | 457 kts | 165° |
| 2026-05-07 18:31 | 55.21771 | 13.25939 | 35141 ft | 457 kts | 165° |
| 2026-05-07 18:32 | 55.15592 | 13.28558 | 35142 ft | 457 kts | 165° |
| 2026-05-07 18:32 | 55.09416 | 13.31170 | 35151 ft | 456 kts | 166° |
| 2026-05-07 18:33 | 55.03243 | 13.33758 | 35155 ft | 456 kts | 166° |
| 2026-05-07 18:33 | 54.97083 | 13.36335 | 35154 ft | 455 kts | 166° |
| 2026-05-07 18:34 | 54.90948 | 13.39045 | 35159 ft | 455 kts | 160° |
| 2026-05-07 18:34 | 54.85031 | 13.42705 | 35155 ft | 454 kts | 160° |
| 2026-05-07 18:35 | 54.79075 | 13.46376 | 35154 ft | 454 kts | 160° |
| 2026-05-07 18:35 | 54.76049 | 13.47900 | 35154 ft | 454 kts | 171° |
| 2026-05-07 18:35 | 54.72908 | 13.48112 | 35153 ft | 452 kts | 186° |
| 2026-05-07 18:36 | 54.66657 | 13.46843 | 35143 ft | 452 kts | 187° |
| 2026-05-07 18:36 | 54.60392 | 13.45500 | 35138 ft | 453 kts | 187° |
| 2026-05-07 18:37 | 54.54156 | 13.44156 | 35141 ft | 453 kts | 187° |
| 2026-05-07 18:37 | 54.47946 | 13.42840 | 35137 ft | 453 kts | 187° |
| 2026-05-07 18:38 | 54.41696 | 13.41525 | 35143 ft | 452 kts | 187° |
| 2026-05-07 18:38 | 54.35455 | 13.40211 | 35141 ft | 452 kts | 187° |
| 2026-05-07 18:39 | 54.29214 | 13.38924 | 35136 ft | 452 kts | 187° |
| 2026-05-07 18:39 | 54.23009 | 13.37632 | 35137 ft | 451 kts | 187° |
| 2026-05-07 18:40 | 54.16831 | 13.36332 | 35145 ft | 450 kts | 187° |
| 2026-05-07 18:40 | 54.10651 | 13.35040 | 35197 ft | 448 kts | 187° |
| 2026-05-07 18:41 | 54.04465 | 13.33761 | 35137 ft | 447 kts | 187° |
| 2026-05-07 18:41 | 53.98289 | 13.32502 | 35133 ft | 447 kts | 187° |
| 2026-05-07 18:42 | 53.92120 | 13.31245 | 35136 ft | 446 kts | 187° |
| 2026-05-07 18:42 | 53.85971 | 13.29982 | 35133 ft | 445 kts | 187° |
| 2026-05-07 18:42 | 53.82900 | 13.29352 | 34809 ft | 444 kts | 187° |
| 2026-05-07 18:43 | 53.79830 | 13.28721 | 34190 ft | 444 kts | 187° |
| 2026-05-07 18:43 | 53.76761 | 13.28093 | 33649 ft | 445 kts | 187° |
| 2026-05-07 18:43 | 53.73684 | 13.27461 | 33097 ft | 446 kts | 187° |
| 2026-05-07 18:43 | 53.70643 | 13.26839 | 32564 ft | 447 kts | 187° |
| 2026-05-07 18:44 | 53.67551 | 13.26210 | 32032 ft | 448 kts | 187° |
| 2026-05-07 18:44 | 53.64453 | 13.25586 | 31512 ft | 449 kts | 187° |
| 2026-05-07 18:44 | 53.61348 | 13.24964 | 31002 ft | 449 kts | 187° |
| 2026-05-07 18:44 | 53.58243 | 13.24345 | 30495 ft | 450 kts | 187° |
| 2026-05-07 18:45 | 53.55129 | 13.23719 | 29973 ft | 451 kts | 187° |
| 2026-05-07 18:45 | 53.52010 | 13.23087 | 29021 ft | 453 kts | 187° |
| 2026-05-07 18:45 | 53.48835 | 13.22446 | 27571 ft | 463 kts | 187° |
| 2026-05-07 18:45 | 53.45663 | 13.21808 | 27015 ft | 453 kts | 187° |
| 2026-05-07 18:46 | 53.42548 | 13.21185 | 26289 ft | 449 kts | 187° |
| 2026-05-07 18:46 | 53.39459 | 13.20567 | 25572 ft | 445 kts | 187° |
| 2026-05-07 18:46 | 53.36436 | 13.19961 | 24883 ft | 442 kts | 187° |
| 2026-05-07 18:46 | 53.33397 | 13.19358 | 24190 ft | 439 kts | 185° |
| 2026-05-07 18:47 | 53.30360 | 13.19523 | 23471 ft | 437 kts | 169° |
| 2026-05-07 18:47 | 53.27405 | 13.20687 | 22667 ft | 435 kts | 165° |
| 2026-05-07 18:47 | 53.24480 | 13.21951 | 21893 ft | 433 kts | 165° |
| 2026-05-07 18:47 | 53.21564 | 13.23224 | 21135 ft | 432 kts | 165° |
| 2026-05-07 18:48 | 53.18667 | 13.24495 | 20393 ft | 430 kts | 165° |
| 2026-05-07 18:48 | 53.15777 | 13.25753 | 19673 ft | 428 kts | 167° |
| 2026-05-07 18:48 | 53.12858 | 13.26226 | 19340 ft | 417 kts | 183° |
| 2026-05-07 18:48 | 53.10013 | 13.25533 | 19101 ft | 411 kts | 192° |
| 2026-05-07 18:49 | 53.07272 | 13.24606 | 18864 ft | 409 kts | 192° |
| 2026-05-07 18:49 | 53.04460 | 13.23638 | 18466 ft | 402 kts | 192° |
| 2026-05-07 18:49 | 53.01768 | 13.22697 | 17925 ft | 399 kts | 192° |
| 2026-05-07 18:49 | 52.99071 | 13.21748 | 17434 ft | 394 kts | 193° |
| 2026-05-07 18:50 | 52.96406 | 13.20814 | 16946 ft | 389 kts | 193° |
| 2026-05-07 18:50 | 52.93771 | 13.19895 | 16452 ft | 385 kts | 193° |
| 2026-05-07 18:50 | 52.91157 | 13.18985 | 15960 ft | 382 kts | 192° |
| 2026-05-07 18:50 | 52.88572 | 13.18086 | 15448 ft | 379 kts | 193° |
| 2026-05-07 18:51 | 52.85998 | 13.17193 | 14943 ft | 376 kts | 192° |
| 2026-05-07 18:51 | 52.83439 | 13.16307 | 14408 ft | 375 kts | 192° |
| 2026-05-07 18:51 | 52.80897 | 13.15423 | 13866 ft | 373 kts | 192° |
| 2026-05-07 18:51 | 52.78363 | 13.14544 | 13273 ft | 371 kts | 192° |
| 2026-05-07 18:52 | 52.75851 | 13.13675 | 12720 ft | 368 kts | 192° |
| 2026-05-07 18:52 | 52.73356 | 13.12814 | 12159 ft | 365 kts | 192° |
| 2026-05-07 18:52 | 52.70918 | 13.11975 | 11595 ft | 362 kts | 192° |
| 2026-05-07 18:52 | 52.68458 | 13.11132 | 11035 ft | 359 kts | 192° |
| 2026-05-07 18:53 | 52.66096 | 13.10322 | 10856 ft | 346 kts | 192° |
| 2026-05-07 18:53 | 52.63785 | 13.09527 | 10735 ft | 331 kts | 192° |
| 2026-05-07 18:53 | 52.61575 | 13.08766 | 10604 ft | 318 kts | 192° |
| 2026-05-07 18:53 | 52.59445 | 13.08039 | 10481 ft | 307 kts | 192° |
| 2026-05-07 18:54 | 52.57395 | 13.07341 | 10330 ft | 297 kts | 192° |
| 2026-05-07 18:54 | 52.55390 | 13.06657 | 10083 ft | 292 kts | 192° |
| 2026-05-07 18:54 | 52.53418 | 13.05983 | 9937 ft | 289 kts | 192° |
| 2026-05-07 18:54 | 52.51431 | 13.05497 | 9794 ft | 288 kts | 180° |
| 2026-05-07 18:55 | 52.49441 | 13.05624 | 9292 ft | 286 kts | 175° |
| 2026-05-07 18:55 | 52.47459 | 13.05849 | 8725 ft | 284 kts | 175° |
| 2026-05-07 18:55 | 52.45611 | 13.06062 | 8225 ft | 282 kts | 175° |
| 2026-05-07 18:55 | 52.43661 | 13.06284 | 7683 ft | 280 kts | 175° |
| 2026-05-07 18:56 | 52.41724 | 13.06498 | 7157 ft | 278 kts | 175° |
| 2026-05-07 18:56 | 52.39813 | 13.06703 | 6710 ft | 272 kts | 175° |
| 2026-05-07 18:56 | 52.37953 | 13.06894 | 6227 ft | 264 kts | 175° |
| 2026-05-07 18:56 | 52.36141 | 13.07073 | 5732 ft | 257 kts | 175° |
| 2026-05-07 18:57 | 52.34382 | 13.07240 | 5228 ft | 250 kts | 175° |
| 2026-05-07 18:57 | 52.32712 | 13.07392 | 4768 ft | 245 kts | 175° |
| 2026-05-07 18:57 | 52.31023 | 13.07539 | 4280 ft | 241 kts | 175° |
| 2026-05-07 18:57 | 52.29359 | 13.07675 | 3781 ft | 238 kts | 175° |
| 2026-05-07 18:58 | 52.27846 | 13.08207 | 3315 ft | 231 kts | 149° |
| 2026-05-07 18:58 | 52.26739 | 13.09985 | 3000 ft | 221 kts | 113° |
| 2026-05-07 18:58 | 52.26421 | 13.12384 | 3001 ft | 217 kts | 84° |
| 2026-05-07 18:58 | 52.26819 | 13.14738 | 3007 ft | 216 kts | 68° |
| 2026-05-07 18:59 | 52.27378 | 13.17009 | 3003 ft | 212 kts | 67° |
| 2026-05-07 18:59 | 52.27898 | 13.19133 | 2997 ft | 196 kts | 68° |
| 2026-05-07 18:59 | 52.28376 | 13.21111 | 3032 ft | 178 kts | 68° |
| 2026-05-07 18:59 | 52.28818 | 13.22945 | 3011 ft | 169 kts | 68° |
| 2026-05-07 19:00 | 52.29223 | 13.24627 | 2969 ft | 151 kts | 68° |
| 2026-05-07 19:00 | 52.29599 | 13.26190 | 2854 ft | 145 kts | 68° |
| 2026-05-07 19:00 | 52.29964 | 13.27709 | 2681 ft | 142 kts | 68° |
| 2026-05-07 19:00 | 52.30324 | 13.29208 | 2507 ft | 141 kts | 67° |
| 2026-05-07 19:01 | 52.30682 | 13.30699 | 2321 ft | 141 kts | 67° |
| 2026-05-07 19:01 | 52.31039 | 13.32186 | 2129 ft | 140 kts | 67° |
| 2026-05-07 19:01 | 52.31394 | 13.33667 | 1937 ft | 140 kts | 67° |
| 2026-05-07 19:01 | 52.31743 | 13.35123 | 1751 ft | 140 kts | 67° |
| 2026-05-07 19:02 | 52.32104 | 13.36632 | 1566 ft | 146 kts | 68° |
| 2026-05-07 19:02 | 52.32467 | 13.38150 | 1352 ft | 142 kts | 68° |
| 2026-05-07 19:02 | 52.32826 | 13.39649 | 1150 ft | 141 kts | 67° |
| 2026-05-07 19:02 | 52.33188 | 13.41154 | 963 ft | 146 kts | 68° |
| 2026-05-07 19:03 | 52.33555 | 13.42702 | 736 ft | 145 kts | 68° |
| 2026-05-07 19:03 | 52.33926 | 13.44258 | 564 ft | 149 kts | 67° |
| 2026-05-07 19:03 | 52.34302 | 13.45849 | 353 ft | 152 kts | 68° |
| 2026-05-07 19:03 | 52.34689 | 13.47456 | 165 ft | 148 kts | 68° |
| 2026-05-07 19:04 | 52.35018 | 13.48838 | 155 ft | 108 kts | 69° |
| 2026-05-07 19:04 | 52.35243 | 13.49776 | 154 ft | 78 kts | 69° |
| 2026-05-07 19:04 | 52.35406 | 13.50441 | 154 ft | 35 kts | 57° |
| 2026-05-07 19:04 | 52.35558 | 13.50655 | 154 ft | 17 kts | 39° |
| 2026-05-07 19:05 | 52.35618 | 13.50736 | 154 ft | 0 kts | 39° |
| 2026-05-07 19:05 | 52.35653 | 13.50784 | 154 ft | 12 kts | 40° |
| 2026-05-07 19:05 | 52.35721 | 13.50841 | 154 ft | 10 kts | 6° |
| 2026-05-07 19:06 | 52.35785 | 13.50817 | 154 ft | 9 kts | 339° |
| 2026-05-07 19:06 | 52.35850 | 13.50775 | 154 ft | 0 kts | 338° |
| 2026-05-07 19:06 | 52.35869 | 13.50763 | 154 ft | 9 kts | 338° |
| 2026-05-07 19:07 | 52.35963 | 13.50704 | 154 ft | 16 kts | 340° |
| 2026-05-07 19:07 | 52.36073 | 13.50636 | 154 ft | 17 kts | 339° |
| 2026-05-07 19:07 | 52.36178 | 13.50568 | 154 ft | 16 kts | 339° |
| 2026-05-07 19:07 | 52.36271 | 13.50510 | 154 ft | 10 kts | 341° |
| 2026-05-07 19:08 | 52.36305 | 13.50570 | 154 ft | 7 kts | 70° |
| 2026-05-07 19:08 | 52.36320 | 13.50633 | 155 ft | 3 kts | 69° |
| 2026-05-07 19:08 | 52.36321 | 13.50635 | 155 ft | 0 kts | 69° |